Time;durP1;ratioP1;P1;durP2;ratioP2;P2;SDS_P1;SDS_P2;PMS_P1;PMS_P2;Temp;Humidity;BMP_temperature;BMP_pressure;BME280_temperature;BME280_humidity;BME280_pressure;Samples;Min_cycle;Max_cycle;Signal;HPM_P1;HPM_P2
2022/03/09 00:01:47;;;;;;;8.10;5.70;;;6.50;55.30;;;;;;5024084;28;20194;-39
2022/03/09 00:04:13;;;;;;;7.17;5.67;;;6.70;55.30;;;;;;5027749;28;21317;-40
2022/03/09 00:06:38;;;;;;;8.50;5.80;;;6.70;55.20;;;;;;5027668;28;20577;-39
2022/03/09 00:09:04;;;;;;;6.50;5.07;;;6.70;55.70;;;;;;5028195;28;20194;-39
2022/03/09 00:11:30;;;;;;;8.03;5.57;;;6.50;55.20;;;;;;5014448;28;20191;-39
2022/03/09 00:13:56;;;;;;;6.40;4.80;;;6.60;55.20;;;;;;5027822;28;20469;-39
2022/03/09 00:16:21;;;;;;;6.70;5.03;;;6.70;55.10;;;;;;5028234;28;20187;-39
2022/03/09 00:18:47;;;;;;;7.67;6.10;;;6.70;55.20;;;;;;5028003;28;20206;-39
2022/03/09 00:21:13;;;;;;;7.13;5.23;;;6.40;55.20;;;;;;5027517;28;20189;-40
2022/03/09 00:23:38;;;;;;;6.20;5.30;;;6.60;55.50;;;;;;5043664;28;20220;-39
2022/03/09 00:26:04;;;;;;;7.13;5.50;;;6.40;55.20;;;;;;5026126;28;20306;-39
2022/03/09 00:28:30;;;;;;;14.63;5.90;;;6.30;54.80;;;;;;5024944;28;20599;-39
2022/03/09 00:30:56;;;;;;;6.23;5.03;;;6.40;54.90;;;;;;5027669;28;20453;-39
2022/03/09 00:33:22;;;;;;;6.03;5.43;;;6.60;55.10;;;;;;5025489;28;20183;-40
2022/03/09 00:35:48;;;;;;;6.67;5.10;;;6.60;54.90;;;;;;5027897;28;20464;-39
2022/03/09 00:38:13;;;;;;;6.77;5.50;;;6.30;54.50;;;;;;5026260;28;20186;-40
2022/03/09 00:40:39;;;;;;;6.97;5.50;;;6.60;54.70;;;;;;5020198;28;20333;-39
2022/03/09 00:43:05;;;;;;;6.70;5.50;;;6.30;54.40;;;;;;5024010;28;20178;-39
2022/03/09 00:45:31;;;;;;;7.10;5.57;;;6.40;54.50;;;;;;5027691;28;20417;-39
2022/03/09 00:47:57;;;;;;;7.20;5.33;;;6.50;54.70;;;;;;5027856;28;20770;-40
2022/03/09 00:50:22;;;;;;;6.60;5.60;;;6.60;54.90;;;;;;5026943;28;20665;-39
2022/03/09 00:52:48;;;;;;;6.63;4.83;;;6.60;54.80;;;;;;5027946;28;20213;-39
2022/03/09 00:55:14;;;;;;;7.60;5.57;;;6.40;54.50;;;;;;5023274;28;20218;-40
2022/03/09 00:57:40;;;;;;;6.17;5.57;;;6.40;54.60;;;;;;5020202;28;20191;-39
2022/03/09 01:00:07;;;;;;;5.13;4.40;;;6.40;54.60;;;;;;5026947;28;20508;-39
2022/03/09 01:02:32;;;;;;;8.30;6.00;;;6.40;54.70;;;;;;5026219;28;20604;-39
2022/03/09 01:04:58;;;;;;;7.67;4.90;;;6.30;54.80;;;;;;5027306;28;20516;-39
2022/03/09 01:07:24;;;;;;;6.87;5.13;;;6.30;54.90;;;;;;5027345;28;20563;-39
2022/03/09 01:09:49;;;;;;;6.30;5.10;;;6.40;54.90;;;;;;5026575;28;20194;-39
2022/03/09 01:12:15;;;;;;;6.80;5.50;;;6.40;55.00;;;;;;5018057;28;20645;-39
2022/03/09 01:14:41;;;;;;;6.57;5.43;;;6.40;55.10;;;;;;5027008;28;20230;-39
2022/03/09 01:17:06;;;;;;;5.93;4.63;;;6.10;54.90;;;;;;5027158;28;20184;-39
2022/03/09 01:19:32;;;;;;;5.20;4.70;;;6.20;55.30;;;;;;5027261;28;20536;-39
2022/03/09 01:21:57;;;;;;;7.83;5.77;;;6.20;55.60;;;;;;5029557;28;20189;-39
2022/03/09 01:24:23;;;;;;;6.17;4.80;;;6.20;55.80;;;;;;5044407;28;20205;-39
2022/03/09 01:26:49;;;;;;;7.83;5.60;;;6.10;55.50;;;;;;5017814;28;20203;-40
2022/03/09 01:29:14;;;;;;;8.33;5.47;;;6.20;55.80;;;;;;5026997;28;20186;-39
2022/03/09 01:31:40;;;;;;;7.00;4.70;;;6.30;56.10;;;;;;5026388;28;20183;-39
2022/03/09 01:34:06;;;;;;;5.37;4.77;;;6.10;55.80;;;;;;5027124;28;20225;-39
2022/03/09 01:36:31;;;;;;;7.67;4.80;;;6.00;55.50;;;;;;5026984;28;20349;-39
2022/03/09 01:38:57;;;;;;;7.47;5.07;;;6.10;55.70;;;;;;5027198;28;20362;-39
2022/03/09 01:41:23;;;;;;;10.60;5.00;;;6.00;55.90;;;;;;5017113;28;20693;-39
2022/03/09 01:44:09;;;;;;;7.37;5.40;;;6.30;56.10;;;;;;5026386;28;20248;-39
2022/03/09 01:46:35;;;;;;;5.90;4.83;;;6.20;56.60;;;;;;5030762;28;20201;-39
2022/03/09 01:49:01;;;;;;;7.30;5.00;;;5.90;55.90;;;;;;5030964;28;20529;-39
2022/03/09 01:51:26;;;;;;;7.17;5.73;;;6.20;56.50;;;;;;5030117;28;20428;-39
2022/03/09 01:53:52;;;;;;;6.73;5.27;;;6.00;55.80;;;;;;5029225;28;20317;-39
2022/03/09 01:56:18;;;;;;;10.17;5.43;;;6.10;56.20;;;;;;5021488;28;20678;-39
2022/03/09 01:58:44;;;;;;;5.47;4.70;;;6.10;56.60;;;;;;5029095;28;20512;-39
2022/03/09 02:01:10;;;;;;;7.53;5.97;;;6.00;56.60;;;;;;5030122;28;20555;-39
2022/03/09 02:03:36;;;;;;;8.63;5.90;;;5.90;56.60;;;;;;5030526;28;20265;-39
2022/03/09 02:06:02;;;;;;;8.67;5.90;;;5.80;56.50;;;;;;5030258;28;20193;-39
2022/03/09 02:11:12;;;;;;;8.40;5.23;;;6.00;56.30;;;;;;5022437;28;20440;-39
2022/03/09 02:13:39;;;;;;;8.47;4.93;;;5.90;56.60;;;;;;5027631;28;20453;-39
2022/03/09 02:16:05;;;;;;;6.93;5.43;;;5.80;56.80;;;;;;5030303;28;20581;-39
2022/03/09 02:18:31;;;;;;;6.90;5.20;;;6.10;57.10;;;;;;5030033;28;20424;-39
2022/03/09 02:21:02;;;;;;;6.97;4.70;;;5.80;56.90;;;;;;5029479;28;20443;-39
2022/03/09 02:23:28;;;;;;;5.60;4.53;;;5.80;56.50;;;;;;5044924;28;20239;-39
2022/03/09 02:25:54;;;;;;;7.33;4.80;;;5.80;56.70;;;;;;5040065;28;20930;-39
2022/03/09 02:28:19;;;;;;;6.20;4.90;;;6.00;56.70;;;;;;5023794;28;20440;-39
2022/03/09 02:30:45;;;;;;;7.17;6.47;;;5.80;56.80;;;;;;5029481;28;20573;-39
2022/03/09 02:33:10;;;;;;;7.10;5.90;;;6.10;57.20;;;;;;5029789;28;20607;-39
2022/03/09 02:35:36;;;;;;;6.73;4.77;;;5.80;56.80;;;;;;5030098;28;20218;-39
2022/03/09 02:38:03;;;;;;;8.83;5.10;;;5.70;56.90;;;;;;5028768;28;20190;-40
2022/03/09 02:40:28;;;;;;;6.80;5.50;;;6.00;57.20;;;;;;5029334;28;20196;-39
2022/03/09 02:42:54;;;;;;;6.63;5.13;;;5.80;56.60;;;;;;5017156;28;20441;-39
2022/03/09 02:45:20;;;;;;;6.60;5.30;;;5.80;56.90;;;;;;5029641;28;20205;-39
2022/03/09 02:47:46;;;;;;;6.50;5.53;;;5.80;57.70;;;;;;5029518;28;20201;-39
2022/03/09 02:50:15;;;;;;;7.10;5.27;;;5.80;57.60;;;;;;5029137;28;20198;-39
2022/03/09 02:52:42;;;;;;;6.23;5.30;;;5.90;57.20;;;;;;5029595;28;20939;-39
2022/03/09 02:55:09;;;;;;;8.50;4.80;;;5.80;57.60;;;;;;5028487;28;20464;-39
2022/03/09 02:57:36;;;;;;;6.33;5.37;;;5.50;57.60;;;;;;5015603;28;20821;-39
2022/03/09 03:00:04;;;;;;;7.50;5.70;;;5.60;57.00;;;;;;5029199;28;20444;-39
2022/03/09 03:02:29;;;;;;;5.30;4.30;;;5.60;57.10;;;;;;5027997;28;20439;-39
2022/03/09 03:04:55;;;;;;;9.50;5.37;;;5.80;57.90;;;;;;5029351;28;20766;-39
2022/03/09 03:07:21;;;;;;;8.07;5.07;;;5.50;57.80;;;;;;5028126;28;20619;-39
2022/03/09 03:09:47;;;;;;;6.27;5.40;;;5.50;57.40;;;;;;5027957;28;20431;-39
2022/03/09 03:12:13;;;;;;;9.17;5.80;;;5.70;57.60;;;;;;5020491;28;20302;-39
2022/03/09 03:14:39;;;;;;;6.70;5.53;;;5.60;56.80;;;;;;5029364;28;20555;-39
2022/03/09 03:17:05;;;;;;;8.43;5.40;;;5.60;57.20;;;;;;5027585;28;20216;-39
2022/03/09 03:19:30;;;;;;;7.30;5.43;;;5.70;57.00;;;;;;5029659;28;20289;-39
2022/03/09 03:21:56;;;;;;;7.77;5.07;;;5.60;57.40;;;;;;5031403;28;20670;-39
2022/03/09 03:24:22;;;;;;;7.13;5.20;;;5.40;57.20;;;;;;5047849;28;20623;-39
2022/03/09 03:26:47;;;;;;;8.37;5.33;;;5.60;57.30;;;;;;5033284;28;20198;-39
2022/03/09 03:29:13;;;;;;;6.53;4.97;;;5.70;57.50;;;;;;5023529;28;20190;-39
2022/03/09 03:31:39;;;;;;;5.70;4.80;;;5.50;57.40;;;;;;5028043;28;20289;-39
2022/03/09 03:34:04;;;;;;;8.07;5.47;;;5.50;57.50;;;;;;5027967;28;20214;-39
2022/03/09 03:36:30;;;;;;;6.70;5.20;;;5.60;57.30;;;;;;5028928;28;20225;-39
2022/03/09 03:38:56;;;;;;;8.40;5.53;;;5.40;57.00;;;;;;5029175;28;20414;-39
2022/03/09 03:41:22;;;;;;;6.63;4.93;;;5.60;57.20;;;;;;5024720;28;20256;-39
2022/03/09 03:43:47;;;;;;;7.57;6.00;;;5.50;57.10;;;;;;5022927;28;20190;-39
2022/03/09 03:46:13;;;;;;;6.43;5.10;;;5.60;57.20;;;;;;5027404;28;20225;-39
2022/03/09 03:48:38;;;;;;;8.50;5.10;;;5.60;57.20;;;;;;5028754;28;20205;-39
2022/03/09 03:51:04;;;;;;;8.10;5.10;;;5.50;57.20;;;;;;5028235;28;20194;-39
2022/03/09 03:53:30;;;;;;;7.13;5.77;;;5.50;57.00;;;;;;5028771;28;20201;-39
2022/03/09 03:55:55;;;;;;;8.03;5.30;;;5.50;57.20;;;;;;5028532;28;20574;-39
2022/03/09 03:58:21;;;;;;;6.33;4.57;;;5.40;57.10;;;;;;5016984;28;20656;-39
2022/03/09 04:00:47;;;;;;;8.90;5.47;;;5.40;56.90;;;;;;5027601;28;20620;-39
2022/03/09 04:03:12;;;;;;;9.87;5.67;;;5.40;57.00;;;;;;5026601;28;20243;-39
2022/03/09 04:05:38;;;;;;;7.33;5.10;;;5.50;57.00;;;;;;5028379;28;20272;-39
2022/03/09 04:08:04;;;;;;;9.20;5.30;;;5.50;57.50;;;;;;5028087;28;20221;-39
2022/03/09 04:10:29;;;;;;;7.67;5.47;;;5.40;57.20;;;;;;5026566;28;20194;-39
2022/03/09 04:13:00;;;;;;;6.67;4.60;;;5.40;57.60;;;;;;5009597;28;20260;-39
2022/03/09 04:15:26;;;;;;;6.67;5.47;;;5.20;57.40;;;;;;5027822;28;20222;-39
2022/03/09 04:17:51;;;;;;;6.00;4.97;;;5.20;57.80;;;;;;5007216;28;20875;-39
2022/03/09 04:20:17;;;;;;;9.70;5.53;;;5.20;57.50;;;;;;5023788;28;20432;-40
2022/03/09 04:22:43;;;;;;;7.63;5.07;;;5.30;57.80;;;;;;5038048;28;20201;-39
2022/03/09 04:25:09;;;;;;;8.73;5.70;;;5.30;58.30;;;;;;5046341;28;20194;-39
2022/03/09 04:27:35;;;;;;;5.80;4.57;;;5.40;57.70;;;;;;5026083;28;20525;-39
2022/03/09 04:30:01;;;;;;;6.37;4.97;;;5.40;57.60;;;;;;5027013;28;20417;-39
2022/03/09 04:32:27;;;;;;;6.47;5.00;;;5.40;57.60;;;;;;5028122;28;20463;-39
2022/03/09 04:34:53;;;;;;;7.43;5.30;;;5.40;57.60;;;;;;5026497;28;20564;-39
2022/03/09 04:37:19;;;;;;;6.50;5.13;;;5.10;57.50;;;;;;5028180;28;20626;-39
2022/03/09 04:39:45;;;;;;;7.03;5.10;;;5.30;58.00;;;;;;5027209;28;20811;-39
2022/03/09 04:42:11;;;;;;;7.90;5.63;;;5.30;57.60;;;;;;5020891;28;20529;-39
2022/03/09 04:44:37;;;;;;;15.50;5.67;;;5.30;57.80;;;;;;5025291;28;20505;-39
2022/03/09 04:47:03;;;;;;;7.27;5.47;;;5.30;58.00;;;;;;5027905;28;20206;-39
2022/03/09 04:49:29;;;;;;;10.40;6.00;;;5.30;57.70;;;;;;5027625;28;20661;-39
2022/03/09 04:51:54;;;;;;;8.03;5.30;;;5.40;57.90;;;;;;5025936;28;20525;-39
2022/03/09 04:54:20;;;;;;;8.00;6.30;;;5.40;58.00;;;;;;5027670;28;20344;-39
2022/03/09 04:56:45;;;;;;;10.47;5.63;;;5.40;57.70;;;;;;5023749;28;20214;-39
2022/03/09 04:59:11;;;;;;;7.83;5.50;;;5.40;57.80;;;;;;5015148;28;20210;-39
2022/03/09 05:01:37;;;;;;;6.77;5.90;;;5.30;57.70;;;;;;5026918;28;20550;-39
2022/03/09 05:04:03;;;;;;;7.40;5.50;;;5.20;57.80;;;;;;5026283;28;20447;-39
2022/03/09 05:06:28;;;;;;;6.20;4.80;;;5.40;57.90;;;;;;5027333;28;20198;-39
2022/03/09 05:08:54;;;;;;;6.17;5.37;;;5.40;58.10;;;;;;5027473;28;20195;-39
2022/03/09 05:11:20;;;;;;;7.97;5.50;;;5.30;57.80;;;;;;5026743;28;20241;-39
2022/03/09 05:13:45;;;;;;;8.23;5.93;;;5.30;58.10;;;;;;5013511;28;20341;-39
2022/03/09 05:16:11;;;;;;;10.37;5.57;;;5.40;57.80;;;;;;5025869;28;20547;-39
2022/03/09 05:18:40;;;;;;;8.07;5.60;;;5.30;58.00;;;;;;5027371;28;20194;-39
2022/03/09 05:21:07;;;;;;;8.43;5.20;;;5.30;57.40;;;;;;5032287;28;20190;-39
2022/03/09 05:23:33;;;;;;;8.30;5.43;;;5.60;57.70;;;;;;5049433;28;20533;-39
2022/03/09 05:25:58;;;;;;;6.33;4.90;;;5.10;57.40;;;;;;5052569;28;20432;-39
2022/03/09 05:28:24;;;;;;;9.13;5.57;;;5.50;57.80;;;;;;5027846;28;20492;-40
2022/03/09 05:30:50;;;;;;;8.37;6.20;;;5.60;57.90;;;;;;5033448;28;20676;-39
2022/03/09 05:33:15;;;;;;;10.83;6.00;;;5.30;57.50;;;;;;5033680;28;20198;-39
2022/03/09 05:35:41;;;;;;;8.73;6.00;;;5.40;58.00;;;;;;5034192;28;20320;-39
2022/03/09 05:38:06;;;;;;;6.70;4.93;;;5.50;57.80;;;;;;5034010;28;20186;-39
2022/03/09 05:40:32;;;;;;;6.50;5.33;;;5.50;58.10;;;;;;5032422;28;20244;-39
2022/03/09 05:42:58;;;;;;;8.57;5.50;;;5.40;57.90;;;;;;5023652;28;20649;-39
2022/03/09 05:45:24;;;;;;;6.50;5.40;;;5.40;58.10;;;;;;5024407;28;20205;-39
2022/03/09 05:47:49;;;;;;;11.50;5.60;;;5.10;57.70;;;;;;5030170;28;20716;-39
2022/03/09 05:50:16;;;;;;;6.20;5.43;;;5.40;58.20;;;;;;5031032;28;20194;-39
2022/03/09 05:52:42;;;;;;;11.00;5.50;;;5.20;58.10;;;;;;5033611;28;20285;-39
2022/03/09 05:55:08;;;;;;;7.67;5.53;;;5.30;58.20;;;;;;5033644;28;20579;-38
2022/03/09 05:57:34;;;;;;;8.93;6.23;;;5.40;58.30;;;;;;5027564;28;20441;-39
2022/03/09 06:00:02;;;;;;;6.57;5.03;;;5.50;58.30;;;;;;5027548;28;20467;-39
2022/03/09 06:02:27;;;;;;;7.80;5.50;;;5.30;58.20;;;;;;5033676;28;20197;-39
2022/03/09 06:04:53;;;;;;;9.13;5.13;;;5.10;58.30;;;;;;5033620;28;20428;-39
2022/03/09 06:07:19;;;;;;;7.80;5.57;;;5.30;58.30;;;;;;5033569;28;20194;-39
2022/03/09 06:09:44;;;;;;;8.13;5.17;;;5.10;58.30;;;;;;5033447;28;20297;-39
2022/03/09 06:12:10;;;;;;;7.97;5.20;;;5.20;58.50;;;;;;5029986;28;20249;-39
2022/03/09 06:14:36;;;;;;;8.67;5.60;;;5.30;58.70;;;;;;5026424;28;20308;-39
2022/03/09 06:17:02;;;;;;;6.53;5.17;;;5.20;58.80;;;;;;5015560;28;20192;-39
2022/03/09 06:19:28;;;;;;;8.40;5.40;;;5.30;58.90;;;;;;5033246;28;20183;-40
2022/03/09 06:21:53;;;;;;;11.17;6.33;;;5.10;58.90;;;;;;5036253;28;20424;-39
2022/03/09 06:24:19;;;;;;;8.07;5.63;;;5.20;58.90;;;;;;5052406;28;20573;-39
2022/03/09 06:26:45;;;;;;;6.17;5.50;;;5.20;58.90;;;;;;5034995;28;20198;-39
2022/03/09 06:29:11;;;;;;;7.53;5.70;;;5.30;58.90;;;;;;5023659;28;20190;-39
2022/03/09 06:31:37;;;;;;;7.70;5.30;;;5.30;59.30;;;;;;5029860;28;20896;-39
2022/03/09 06:34:03;;;;;;;10.40;5.80;;;5.20;59.00;;;;;;5030301;28;20581;-39
2022/03/09 06:36:28;;;;;;;6.93;5.93;;;5.50;59.20;;;;;;5026347;28;20429;-39
2022/03/09 06:38:54;;;;;;;7.80;5.83;;;5.20;59.30;;;;;;5029897;28;20728;-39
2022/03/09 06:41:20;;;;;;;7.40;5.60;;;5.50;59.00;;;;;;5029018;28;20186;-40
2022/03/09 06:43:45;;;;;;;10.27;6.60;;;5.40;59.20;;;;;;5022420;28;20202;-39
2022/03/09 06:46:12;;;;;;;6.73;5.40;;;5.50;59.50;;;;;;5027216;28;20287;-39
2022/03/09 06:48:37;;;;;;;8.33;5.43;;;5.50;59.80;;;;;;5029869;28;20182;-39
2022/03/09 06:51:04;;;;;;;8.43;5.67;;;5.50;59.70;;;;;;5027770;28;20429;-39
2022/03/09 06:53:30;;;;;;;10.77;6.60;;;5.50;60.20;;;;;;5039306;28;20644;-39
2022/03/09 06:55:56;;;;;;;8.33;5.87;;;5.40;59.30;;;;;;5049133;28;20943;-39
2022/03/09 06:58:23;;;;;;;11.20;6.30;;;5.60;59.60;;;;;;5030959;28;20465;-39
2022/03/09 07:00:49;;;;;;;15.03;5.57;;;5.60;59.00;;;;;;5027986;28;20193;-39
2022/03/09 07:03:15;;;;;;;7.73;5.83;;;5.60;59.10;;;;;;5027705;28;20839;-39
2022/03/09 07:05:41;;;;;;;7.70;5.90;;;5.50;59.30;;;;;;5025263;28;20433;-39
2022/03/09 07:08:07;;;;;;;6.93;5.73;;;5.60;59.10;;;;;;5026868;28;20947;-39
2022/03/09 07:10:33;;;;;;;8.17;6.10;;;5.60;58.80;;;;;;5027111;28;20633;-39
2022/03/09 07:12:59;;;;;;;7.93;5.83;;;5.60;58.30;;;;;;5023783;28;20440;-39
2022/03/09 07:15:24;;;;;;;8.20;6.07;;;5.80;58.40;;;;;;5025667;28;20245;-39
2022/03/09 07:17:50;;;;;;;9.70;6.43;;;5.70;58.20;;;;;;5027960;28;20217;-40
2022/03/09 07:20:16;;;;;;;8.17;6.00;;;5.80;58.20;;;;;;5028923;28;20197;-39
2022/03/09 07:22:43;;;;;;;7.50;5.63;;;5.80;58.20;;;;;;5029236;28;20209;-40
2022/03/09 07:25:10;;;;;;;8.10;5.80;;;6.00;58.50;;;;;;5027236;28;20428;-39
2022/03/09 07:27:36;;;;;;;8.80;6.00;;;6.30;58.50;;;;;;5029079;28;20452;-39
2022/03/09 07:30:04;;;;;;;9.40;6.33;;;6.10;58.00;;;;;;5021251;28;20520;-39
2022/03/09 07:32:29;;;;;;;7.87;5.80;;;6.60;58.00;;;;;;5028762;28;20421;-40
2022/03/09 07:34:55;;;;;;;9.80;6.00;;;6.50;57.50;;;;;;5029143;28;20956;-39
2022/03/09 07:37:21;;;;;;;8.43;5.97;;;6.80;57.00;;;;;;5028808;28;20227;-39
2022/03/09 07:39:46;;;;;;;8.30;6.37;;;7.00;57.00;;;;;;5028681;28;20199;-39
2022/03/09 07:42:12;;;;;;;7.40;5.70;;;7.30;57.10;;;;;;5028499;28;20183;-40
2022/03/09 07:44:38;;;;;;;7.60;6.10;;;7.50;56.50;;;;;;5024338;28;20223;-40
2022/03/09 07:47:04;;;;;;;12.43;6.80;;;7.40;55.70;;;;;;5028676;28;20498;-40
2022/03/09 07:49:33;;;;;;;8.03;6.40;;;7.70;55.30;;;;;;5028770;28;20293;-43
2022/03/09 07:52:02;;;;;;;7.00;5.90;;;8.00;55.30;;;;;;5029372;28;20429;-40
2022/03/09 07:54:28;;;;;;;9.50;6.00;;;8.30;55.70;;;;;;5031771;28;20468;-41
2022/03/09 07:56:55;;;;;;;7.97;6.10;;;8.60;55.50;;;;;;5047564;28;20436;-42
2022/03/09 07:59:21;;;;;;;10.80;7.00;;;8.80;55.40;;;;;;5023109;28;20429;-45
2022/03/09 08:01:52;;;;;;;8.40;6.83;;;9.20;54.70;;;;;;5027904;28;20857;-40
2022/03/09 08:04:18;;;;;;;6.90;5.50;;;9.10;54.00;;;;;;5027266;28;20190;-44
2022/03/09 08:06:44;;;;;;;9.03;6.80;;;9.50;53.10;;;;;;5030687;28;20481;-41
2022/03/09 08:09:10;;;;;;;7.53;6.17;;;9.70;52.30;;;;;;5025099;28;20491;-41
2022/03/09 08:11:36;;;;;;;11.73;5.90;;;9.70;52.80;;;;;;5027751;28;20256;-40
2022/03/09 08:14:01;;;;;;;8.03;6.47;;;9.90;52.00;;;;;;5019580;28;20723;-40
2022/03/09 08:16:27;;;;;;;8.13;6.50;;;9.60;51.70;;;;;;5023892;28;20830;-40
2022/03/09 08:18:53;;;;;;;9.77;6.13;;;9.80;51.80;;;;;;5027582;28;20251;-40
2022/03/09 08:21:18;;;;;;;10.23;6.10;;;9.80;51.50;;;;;;5030210;28;20190;-40
2022/03/09 08:23:44;;;;;;;7.87;6.00;;;9.90;50.80;;;;;;5045337;28;20190;-41
2022/03/09 08:26:10;;;;;;;7.30;5.90;;;9.70;50.50;;;;;;5046036;28;20560;-40
2022/03/09 08:28:35;;;;;;;8.67;6.90;;;10.10;50.70;;;;;;5021882;28;20194;-43
2022/03/09 08:31:01;;;;;;;8.33;6.10;;;10.10;49.40;;;;;;5033273;28;20566;-41
2022/03/09 08:33:27;;;;;;;9.97;7.23;;;10.40;49.50;;;;;;5027754;28;20425;-40
2022/03/09 08:35:53;;;;;;;9.20;6.27;;;10.40;48.80;;;;;;5025814;28;20253;-40
2022/03/09 08:38:19;;;;;;;9.13;6.03;;;10.30;48.50;;;;;;5027713;28;20202;-43
2022/03/09 08:40:45;;;;;;;6.87;5.83;;;10.30;48.30;;;;;;5027120;28;20931;-40
2022/03/09 08:43:11;;;;;;;8.30;5.57;;;10.50;48.30;;;;;;5025698;28;20478;-42
2022/03/09 08:45:37;;;;;;;10.43;6.53;;;10.70;48.00;;;;;;5024434;28;20193;-41
2022/03/09 08:48:04;;;;;;;9.43;6.60;;;10.90;48.70;;;;;;5026633;28;20425;-40
2022/03/09 08:50:29;;;;;;;8.43;6.50;;;11.10;47.80;;;;;;5037837;28;20424;-40
2022/03/09 08:52:56;;;;;;;9.20;6.50;;;11.20;47.90;;;;;;5038738;28;20431;-40
2022/03/09 08:55:22;;;;;;;9.93;6.33;;;11.40;48.10;;;;;;5046952;28;20221;-40
2022/03/09 08:57:48;;;;;;;8.37;6.10;;;11.40;47.20;;;;;;5045933;28;20440;-41
2022/03/09 09:00:14;;;;;;;9.47;7.33;;;11.60;46.60;;;;;;5018533;28;20433;-41
2022/03/09 09:02:40;;;;;;;8.13;6.00;;;11.60;46.00;;;;;;5025681;28;20252;-41
2022/03/09 09:05:06;;;;;;;9.67;6.47;;;11.70;46.90;;;;;;5027555;28;20854;-41
2022/03/09 09:07:32;;;;;;;7.70;6.50;;;12.00;47.60;;;;;;5027246;28;20453;-40
2022/03/09 09:09:58;;;;;;;9.50;6.77;;;12.20;47.30;;;;;;5026854;28;20764;-40
2022/03/09 09:12:23;;;;;;;7.60;6.20;;;12.30;47.40;;;;;;5027250;28;20190;-41
2022/03/09 09:14:49;;;;;;;6.60;5.70;;;12.40;46.40;;;;;;5016927;28;20273;-40
2022/03/09 09:17:15;;;;;;;8.63;6.30;;;12.30;45.50;;;;;;5025908;28;20194;-42
2022/03/09 09:19:40;;;;;;;8.90;5.97;;;12.40;45.10;;;;;;5025992;28;20201;-42
2022/03/09 09:22:06;;;;;;;8.70;6.20;;;12.20;44.50;;;;;;5027369;28;20221;-40
2022/03/09 09:24:32;;;;;;;8.93;6.73;;;12.10;44.50;;;;;;5026388;28;20197;-42
2022/03/09 09:26:58;;;;;;;8.03;6.23;;;12.00;44.20;;;;;;5025996;28;20194;-40
2022/03/09 09:29:24;;;;;;;7.47;6.67;;;12.00;45.20;;;;;;5018122;28;20541;-40
2022/03/09 09:31:51;;;;;;;6.37;5.77;;;12.10;44.90;;;;;;5035056;28;21206;-40
2022/03/09 09:34:17;;;;;;;10.33;6.23;;;12.20;45.30;;;;;;5026773;28;20614;-41
2022/03/09 09:36:46;;;;;;;7.57;6.57;;;12.40;45.10;;;;;;5026693;28;20432;-41
2022/03/09 09:39:13;;;;;;;8.27;5.90;;;12.40;44.50;;;;;;5027132;28;20699;-40
2022/03/09 09:41:46;;;;;;;8.13;6.20;;;12.50;44.50;;;;;;5025121;28;20436;-40
2022/03/09 09:44:12;;;;;;;9.10;6.70;;;12.50;44.60;;;;;;5019242;28;20433;-40
2022/03/09 09:46:41;;;;;;;7.90;6.50;;;12.40;42.90;;;;;;5025514;28;20483;-41
2022/03/09 09:49:09;;;;;;;7.50;6.50;;;12.50;44.10;;;;;;5027142;28;20448;-40
2022/03/09 09:51:37;;;;;;;8.40;6.50;;;12.70;44.20;;;;;;5013458;28;20486;-40
2022/03/09 09:54:04;;;;;;;6.80;6.10;;;12.80;43.80;;;;;;5026641;28;20547;-42
2022/03/09 09:56:30;;;;;;;7.67;6.40;;;12.90;43.30;;;;;;5026865;28;20885;-40
2022/03/09 09:58:57;;;;;;;7.17;5.97;;;13.20;43.70;;;;;;5023183;28;20433;-40
2022/03/09 10:01:23;;;;;;;8.50;6.83;;;13.40;44.90;;;;;;5012925;28;20186;-41
2022/03/09 10:03:48;;;;;;;6.77;6.07;;;13.60;43.40;;;;;;5025906;28;20428;-41
2022/03/09 10:06:14;;;;;;;7.60;6.57;;;13.90;43.20;;;;;;5035660;28;20190;-40
2022/03/09 10:08:40;;;;;;;8.03;6.40;;;13.90;42.70;;;;;;5035815;28;20256;-43
2022/03/09 10:11:06;;;;;;;9.67;6.80;;;14.10;42.50;;;;;;5048294;28;20206;-41
2022/03/09 10:13:38;;;;;;;8.70;6.50;;;14.00;41.30;;;;;;5048541;28;20190;-41
2022/03/09 10:16:10;;;;;;;11.23;6.43;;;13.90;42.00;;;;;;5019118;28;20532;-43
2022/03/09 10:18:36;;;;;;;7.60;6.53;;;14.00;42.20;;;;;;5029475;28;20424;-38
2022/03/09 10:21:35;;;;;;;7.20;6.50;;;14.00;42.40;;;;;;5029272;28;20426;-39
2022/03/09 10:24:09;;;;;;;9.00;6.93;;;14.30;41.90;;;;;;5024237;28;20729;-41
2022/03/09 10:26:34;;;;;;;8.07;6.70;;;14.60;42.20;;;;;;5030373;28;20483;-39
2022/03/09 10:29:07;;;;;;;11.23;7.37;;;14.60;40.40;;;;;;5027618;28;20975;-40
2022/03/09 10:31:59;;;;;;;10.43;7.27;;;14.70;40.90;;;;;;5019309;28;20612;-39
2022/03/09 10:34:26;;;;;;;8.80;6.97;;;14.80;40.20;;;;;;5029891;28;20469;-41
2022/03/09 10:37:02;;;;;;;8.00;7.20;;;14.50;39.50;;;;;;5028692;28;20987;-41
2022/03/09 10:39:34;;;;;;;9.33;8.30;;;14.60;40.90;;;;;;5028728;28;20436;-39
2022/03/09 10:42:02;;;;;;;10.13;7.47;;;14.50;40.00;;;;;;5030157;28;20767;-38
2022/03/09 10:44:48;;;;;;;9.33;7.97;;;14.60;40.00;;;;;;5025105;28;20442;-40
2022/03/09 10:47:28;;;;;;;9.70;7.50;;;14.70;41.00;;;;;;5024447;28;20678;-40
2022/03/09 10:50:07;;;;;;;10.07;7.70;;;14.80;40.00;;;;;;5027857;28;20433;-42
2022/03/09 10:52:43;;;;;;;9.30;7.50;;;14.70;40.00;;;;;;5030032;28;20433;-39
2022/03/09 10:55:22;;;;;;;10.00;7.57;;;14.70;38.80;;;;;;5029852;28;20467;-39
2022/03/09 10:57:48;;;;;;;8.77;7.33;;;14.60;39.90;;;;;;5029626;28;20441;-42
2022/03/09 11:00:14;;;;;;;9.37;7.70;;;14.50;38.90;;;;;;5010085;28;20469;-41
2022/03/09 11:02:50;;;;;;;8.47;7.67;;;14.40;39.20;;;;;;5029239;28;20467;-41
2022/03/09 11:05:20;;;;;;;7.93;7.13;;;14.10;39.40;;;;;;5029680;28;20376;-43
2022/03/09 11:07:47;;;;;;;9.50;7.77;;;13.90;39.60;;;;;;5029277;28;20429;-42
2022/03/09 11:10:13;;;;;;;8.90;7.07;;;13.60;38.80;;;;;;5029294;28;20590;-40
2022/03/09 11:12:39;;;;;;;7.70;6.90;;;13.40;39.80;;;;;;5029490;28;20436;-40
2022/03/09 11:15:06;;;;;;;8.80;6.83;;;13.30;40.00;;;;;;5022840;28;20473;-43
2022/03/09 11:17:33;;;;;;;8.63;7.00;;;13.20;39.70;;;;;;5025925;28;20421;-40
2022/03/09 11:19:59;;;;;;;9.67;7.63;;;13.30;40.20;;;;;;5029052;28;20958;-38
2022/03/09 11:22:24;;;;;;;7.93;7.13;;;13.30;40.20;;;;;;5018499;28;20420;-39
2022/03/09 11:24:53;;;;;;;8.80;7.90;;;13.40;41.30;;;;;;5044334;28;20428;-38
2022/03/09 11:27:19;;;;;;;8.20;7.33;;;13.60;40.70;;;;;;5047978;28;20327;-38
2022/03/09 11:29:45;;;;;;;7.43;6.60;;;13.60;39.80;;;;;;5040874;28;20442;-39
2022/03/09 11:32:13;;;;;;;8.00;6.90;;;13.60;39.30;;;;;;5022834;28;20421;-39
2022/03/09 11:34:43;;;;;;;8.17;7.33;;;13.80;39.80;;;;;;5027675;28;20465;-39
2022/03/09 11:37:14;;;;;;;7.53;6.70;;;14.00;39.60;;;;;;5028925;28;20778;-40
2022/03/09 11:39:45;;;;;;;9.37;7.20;;;14.00;39.00;;;;;;5028820;28;20494;-38
2022/03/09 11:42:20;;;;;;;9.73;6.93;;;14.30;39.90;;;;;;5027789;28;20429;-43
2022/03/09 11:44:50;;;;;;;9.17;7.53;;;14.50;39.70;;;;;;5025723;28;20442;-41
2022/03/09 11:47:16;;;;;;;9.60;7.90;;;14.40;39.00;;;;;;5023235;28;20426;-39
2022/03/09 11:49:42;;;;;;;9.87;8.07;;;14.50;39.50;;;;;;5026429;28;20432;-41
2022/03/09 11:52:11;;;;;;;13.37;7.20;;;14.70;38.20;;;;;;5028848;28;20440;-38
2022/03/09 11:54:55;;;;;;;8.70;7.57;;;14.70;39.20;;;;;;5028444;28;20229;-38
2022/03/09 11:57:25;;;;;;;9.30;7.30;;;14.80;39.40;;;;;;5027248;28;20452;-39
2022/03/09 12:00:14;;;;;;;9.70;7.77;;;15.00;38.30;;;;;;5023167;28;20995;-38
2022/03/09 12:02:40;;;;;;;10.50;7.90;;;14.90;38.90;;;;;;5026621;28;20413;-39
2022/03/09 12:05:07;;;;;;;9.53;8.07;;;14.90;37.80;;;;;;5028380;28;20453;-38
2022/03/09 12:07:34;;;;;;;9.80;7.17;;;14.90;37.40;;;;;;5028389;28;20453;-41
2022/03/09 12:10:11;;;;;;;8.40;7.50;;;14.80;37.20;;;;;;5027603;28;20429;-40
2022/03/09 12:12:58;;;;;;;8.53;7.67;;;14.70;37.30;;;;;;5028158;28;20433;-42
2022/03/09 12:15:24;;;;;;;11.93;7.87;;;14.80;37.20;;;;;;5022482;28;20532;-38
2022/03/09 12:17:50;;;;;;;7.80;6.90;;;14.90;37.10;;;;;;5020343;28;20429;-39
2022/03/09 12:20:24;;;;;;;8.73;6.57;;;15.00;37.70;;;;;;5027429;28;20200;-44
2022/03/09 12:22:59;;;;;;;10.50;8.40;;;15.10;37.90;;;;;;5016645;28;20432;-43
2022/03/09 12:25:41;;;;;;;9.70;7.17;;;15.00;37.10;;;;;;5027289;28;20508;-41
2022/03/09 12:28:28;;;;;;;11.60;8.30;;;15.00;36.10;;;;;;5028543;28;20811;-40
2022/03/09 12:31:15;;;;;;;8.27;7.10;;;15.00;37.50;;;;;;5017090;28;20425;-43
2022/03/09 12:33:42;;;;;;;9.50;7.30;;;15.00;36.90;;;;;;5027571;28;20439;-40
2022/03/09 12:36:17;;;;;;;9.33;7.83;;;15.10;37.70;;;;;;5027713;28;20468;-38
2022/03/09 12:38:50;;;;;;;8.07;7.17;;;15.20;37.70;;;;;;5026400;28;20424;-40
2022/03/09 12:41:33;;;;;;;8.43;6.90;;;15.40;38.00;;;;;;5027313;28;20453;-39
2022/03/09 12:44:04;;;;;;;9.43;7.07;;;15.50;36.60;;;;;;5028026;28;20439;-39
2022/03/09 12:46:32;;;;;;;8.90;7.70;;;15.70;37.60;;;;;;5018911;28;20429;-39
2022/03/09 12:49:01;;;;;;;8.07;7.23;;;15.50;36.50;;;;;;5025507;28;20439;-44
2022/03/09 12:51:27;;;;;;;8.93;8.03;;;15.40;36.60;;;;;;5025755;28;20591;-39
2022/03/09 12:53:52;;;;;;;8.97;7.20;;;15.30;35.40;;;;;;5027691;28;20417;-42
2022/03/09 12:56:24;;;;;;;8.80;7.60;;;15.30;36.00;;;;;;5026980;28;20457;-41